sensor_id;sensor_type;location;lat;lon;timestamp;P1;P2;P0
46094;PMS5003;31832;50.746;-2.716;2024-03-17T00:00:18;11;8;
46094;PMS5003;31832;50.746;-2.716;2024-03-17T00:02:44;8;7;
46094;PMS5003;31832;50.746;-2.716;2024-03-17T00:05:09;12;10;
46094;PMS5003;31832;50.746;-2.716;2024-03-17T00:07:35;11;10;
46094;PMS5003;31832;50.746;-2.716;2024-03-17T00:10:01;8;7;
46094;PMS5003;31832;50.746;-2.716;2024-03-17T00:12:27;11;7;
46094;PMS5003;31832;50.746;-2.716;2024-03-17T00:14:52;9;7;
46094;PMS5003;31832;50.746;-2.716;2024-03-17T00:17:18;8;8;
46094;PMS5003;31832;50.746;-2.716;2024-03-17T00:19:44;12;11;
46094;PMS5003;31832;50.746;-2.716;2024-03-17T00:22:08;7;7;
46094;PMS5003;31832;50.746;-2.716;2024-03-17T00:24:34;7;7;
46094;PMS5003;31832;50.746;-2.716;2024-03-17T00:26:59;12;11;
46094;PMS5003;31832;50.746;-2.716;2024-03-17T00:29:25;9;8;
46094;PMS5003;31832;50.746;-2.716;2024-03-17T00:31:50;9;8;
46094;PMS5003;31832;50.746;-2.716;2024-03-17T00:34:16;11;11;
46094;PMS5003;31832;50.746;-2.716;2024-03-17T00:36:42;9;8;
46094;PMS5003;31832;50.746;-2.716;2024-03-17T00:39:07;11;10;
46094;PMS5003;31832;50.746;-2.716;2024-03-17T00:41:32;10;10;
46094;PMS5003;31832;50.746;-2.716;2024-03-17T00:43:57;15;12;
46094;PMS5003;31832;50.746;-2.716;2024-03-17T00:46:23;9;7;
46094;PMS5003;31832;50.746;-2.716;2024-03-17T00:48:48;10;7;
46094;PMS5003;31832;50.746;-2.716;2024-03-17T00:51:14;11;9;
46094;PMS5003;31832;50.746;-2.716;2024-03-17T00:53:39;10;9;
46094;PMS5003;31832;50.746;-2.716;2024-03-17T00:56:04;10;10;
46094;PMS5003;31832;50.746;-2.716;2024-03-17T00:58:29;10;10;
46094;PMS5003;31832;50.746;-2.716;2024-03-17T01:00:55;9;6;
46094;PMS5003;31832;50.746;-2.716;2024-03-17T01:03:20;14;12;
46094;PMS5003;31832;50.746;-2.716;2024-03-17T01:05:46;12;10;
46094;PMS5003;31832;50.746;-2.716;2024-03-17T01:08:11;7;6;
46094;PMS5003;31832;50.746;-2.716;2024-03-17T01:10:37;7;7;
46094;PMS5003;31832;50.746;-2.716;2024-03-17T01:13:02;13;11;
46094;PMS5003;31832;50.746;-2.716;2024-03-17T01:15:28;13;10;
46094;PMS5003;31832;50.746;-2.716;2024-03-17T01:17:53;7;7;
46094;PMS5003;31832;50.746;-2.716;2024-03-17T01:20:18;10;9;
46094;PMS5003;31832;50.746;-2.716;2024-03-17T01:22:44;9;8;
46094;PMS5003;31832;50.746;-2.716;2024-03-17T01:25:10;11;8;
46094;PMS5003;31832;50.746;-2.716;2024-03-17T01:27:35;11;10;
46094;PMS5003;31832;50.746;-2.716;2024-03-17T01:30:01;8;6;
46094;PMS5003;31832;50.746;-2.716;2024-03-17T01:32:30;12;10;
46094;PMS5003;31832;50.746;-2.716;2024-03-17T01:34:51;11;7;
46094;PMS5003;31832;50.746;-2.716;2024-03-17T01:37:17;10;8;
46094;PMS5003;31832;50.746;-2.716;2024-03-17T01:39:43;10;9;
46094;PMS5003;31832;50.746;-2.716;2024-03-17T01:42:09;11;9;
46094;PMS5003;31832;50.746;-2.716;2024-03-17T01:44:34;11;8;
46094;PMS5003;31832;50.746;-2.716;2024-03-17T01:46:59;7;7;
46094;PMS5003;31832;50.746;-2.716;2024-03-17T01:49:25;10;8;
46094;PMS5003;31832;50.746;-2.716;2024-03-17T01:51:50;8;8;
46094;PMS5003;31832;50.746;-2.716;2024-03-17T01:54:15;10;8;
46094;PMS5003;31832;50.746;-2.716;2024-03-17T01:56:40;9;7;
46094;PMS5003;31832;50.746;-2.716;2024-03-17T01:59:07;6;6;
46094;PMS5003;31832;50.746;-2.716;2024-03-17T02:01:31;13;11;
46094;PMS5003;31832;50.746;-2.716;2024-03-17T02:03:57;8;8;
46094;PMS5003;31832;50.746;-2.716;2024-03-17T02:06:22;12;10;
46094;PMS5003;31832;50.746;-2.716;2024-03-17T02:08:47;7;7;
46094;PMS5003;31832;50.746;-2.716;2024-03-17T02:13:38;12;10;
46094;PMS5003;31832;50.746;-2.716;2024-03-17T02:16:04;10;10;
46094;PMS5003;31832;50.746;-2.716;2024-03-17T02:18:30;15;13;
46094;PMS5003;31832;50.746;-2.716;2024-03-17T02:20:55;7;6;
46094;PMS5003;31832;50.746;-2.716;2024-03-17T02:23:20;14;8;
46094;PMS5003;31832;50.746;-2.716;2024-03-17T02:25:45;8;8;
46094;PMS5003;31832;50.746;-2.716;2024-03-17T02:28:11;9;8;
46094;PMS5003;31832;50.746;-2.716;2024-03-17T02:30:36;8;7;
46094;PMS5003;31832;50.746;-2.716;2024-03-17T02:33:01;10;10;
46094;PMS5003;31832;50.746;-2.716;2024-03-17T02:35:27;10;9;
46094;PMS5003;31832;50.746;-2.716;2024-03-17T02:37:52;9;6;
46094;PMS5003;31832;50.746;-2.716;2024-03-17T02:40:18;9;8;
46094;PMS5003;31832;50.746;-2.716;2024-03-17T02:42:44;10;10;
46094;PMS5003;31832;50.746;-2.716;2024-03-17T02:45:09;9;8;
46094;PMS5003;31832;50.746;-2.716;2024-03-17T02:47:35;9;7;
46094;PMS5003;31832;50.746;-2.716;2024-03-17T02:50:01;11;10;
46094;PMS5003;31832;50.746;-2.716;2024-03-17T02:54:52;10;10;
46094;PMS5003;31832;50.746;-2.716;2024-03-17T02:57:18;12;9;
46094;PMS5003;31832;50.746;-2.716;2024-03-17T02:59:42;12;8;
46094;PMS5003;31832;50.746;-2.716;2024-03-17T03:02:08;7;6;
46094;PMS5003;31832;50.746;-2.716;2024-03-17T03:04:33;9;9;
46094;PMS5003;31832;50.746;-2.716;2024-03-17T03:06:58;10;6;
46094;PMS5003;31832;50.746;-2.716;2024-03-17T03:09:24;10;8;
46094;PMS5003;31832;50.746;-2.716;2024-03-17T03:11:49;11;8;
46094;PMS5003;31832;50.746;-2.716;2024-03-17T03:14:14;12;9;
46094;PMS5003;31832;50.746;-2.716;2024-03-17T03:16:40;17;10;
46094;PMS5003;31832;50.746;-2.716;2024-03-17T03:19:05;9;6;
46094;PMS5003;31832;50.746;-2.716;2024-03-17T03:21:31;9;9;
46094;PMS5003;31832;50.746;-2.716;2024-03-17T03:23:56;9;7;
46094;PMS5003;31832;50.746;-2.716;2024-03-17T03:26:22;8;6;
46094;PMS5003;31832;50.746;-2.716;2024-03-17T03:28:47;7;7;
46094;PMS5003;31832;50.746;-2.716;2024-03-17T03:31:13;8;7;
46094;PMS5003;31832;50.746;-2.716;2024-03-17T03:33:38;6;6;
46094;PMS5003;31832;50.746;-2.716;2024-03-17T03:36:07;11;9;
46094;PMS5003;31832;50.746;-2.716;2024-03-17T03:38:28;8;7;
46094;PMS5003;31832;50.746;-2.716;2024-03-17T03:40:54;9;7;
46094;PMS5003;31832;50.746;-2.716;2024-03-17T03:43:20;7;7;
46094;PMS5003;31832;50.746;-2.716;2024-03-17T03:45:45;7;7;
46094;PMS5003;31832;50.746;-2.716;2024-03-17T03:48:10;9;9;
46094;PMS5003;31832;50.746;-2.716;2024-03-17T03:50:37;5;4;
46094;PMS5003;31832;50.746;-2.716;2024-03-17T03:53:01;5;5;
46094;PMS5003;31832;50.746;-2.716;2024-03-17T03:55:27;6;5;
46094;PMS5003;31832;50.746;-2.716;2024-03-17T03:57:52;9;6;
46094;PMS5003;31832;50.746;-2.716;2024-03-17T04:00:17;5;4;
46094;PMS5003;31832;50.746;-2.716;2024-03-17T04:02:42;3;3;
46094;PMS5003;31832;50.746;-2.716;2024-03-17T04:05:08;6;4;
46094;PMS5003;31832;50.746;-2.716;2024-03-17T04:07:33;4;4;
46094;PMS5003;31832;50.746;-2.716;2024-03-17T04:09:58;4;3;
46094;PMS5003;31832;50.746;-2.716;2024-03-17T04:12:24;5;4;
46094;PMS5003;31832;50.746;-2.716;2024-03-17T04:14:49;8;5;
46094;PMS5003;31832;50.746;-2.716;2024-03-17T04:17:14;4;3;
46094;PMS5003;31832;50.746;-2.716;2024-03-17T04:19:39;4;4;
46094;PMS5003;31832;50.746;-2.716;2024-03-17T04:22:04;6;5;
46094;PMS5003;31832;50.746;-2.716;2024-03-17T04:24:30;3;3;
46094;PMS5003;31832;50.746;-2.716;2024-03-17T04:26:55;4;4;
46094;PMS5003;31832;50.746;-2.716;2024-03-17T04:29:20;4;4;
46094;PMS5003;31832;50.746;-2.716;2024-03-17T04:31:45;4;4;
46094;PMS5003;31832;50.746;-2.716;2024-03-17T04:34:11;5;3;
46094;PMS5003;31832;50.746;-2.716;2024-03-17T04:36:36;4;4;
46094;PMS5003;31832;50.746;-2.716;2024-03-17T04:39:01;3;3;
46094;PMS5003;31832;50.746;-2.716;2024-03-17T04:41:26;8;5;
46094;PMS5003;31832;50.746;-2.716;2024-03-17T04:43:52;7;6;
46094;PMS5003;31832;50.746;-2.716;2024-03-17T04:46:17;5;5;
46094;PMS5003;31832;50.746;-2.716;2024-03-17T04:48:42;3;3;
46094;PMS5003;31832;50.746;-2.716;2024-03-17T04:51:07;4;4;
46094;PMS5003;31832;50.746;-2.716;2024-03-17T04:53:32;9;8;
46094;PMS5003;31832;50.746;-2.716;2024-03-17T04:55:59;5;5;
46094;PMS5003;31832;50.746;-2.716;2024-03-17T04:58:23;7;7;
46094;PMS5003;31832;50.746;-2.716;2024-03-17T05:00:48;6;5;
46094;PMS5003;31832;50.746;-2.716;2024-03-17T05:03:13;8;5;
46094;PMS5003;31832;50.746;-2.716;2024-03-17T05:05:38;4;4;
46094;PMS5003;31832;50.746;-2.716;2024-03-17T05:08:04;4;4;
46094;PMS5003;31832;50.746;-2.716;2024-03-17T05:10:29;4;4;
46094;PMS5003;31832;50.746;-2.716;2024-03-17T05:12:54;3;3;
46094;PMS5003;31832;50.746;-2.716;2024-03-17T05:15:19;4;3;
46094;PMS5003;31832;50.746;-2.716;2024-03-17T05:17:44;2;2;
46094;PMS5003;31832;50.746;-2.716;2024-03-17T05:20:10;2;2;
46094;PMS5003;31832;50.746;-2.716;2024-03-17T05:22:35;7;4;
46094;PMS5003;31832;50.746;-2.716;2024-03-17T05:25:00;4;4;
46094;PMS5003;31832;50.746;-2.716;2024-03-17T05:27:26;5;5;
46094;PMS5003;31832;50.746;-2.716;2024-03-17T05:29:51;5;5;
46094;PMS5003;31832;50.746;-2.716;2024-03-17T05:32:17;5;5;
46094;PMS5003;31832;50.746;-2.716;2024-03-17T05:34:42;8;5;
46094;PMS5003;31832;50.746;-2.716;2024-03-17T05:37:08;5;5;
46094;PMS5003;31832;50.746;-2.716;2024-03-17T05:39:33;7;6;
46094;PMS5003;31832;50.746;-2.716;2024-03-17T05:41:58;6;5;
46094;PMS5003;31832;50.746;-2.716;2024-03-17T05:44:24;6;6;
46094;PMS5003;31832;50.746;-2.716;2024-03-17T05:46:49;10;8;
46094;PMS5003;31832;50.746;-2.716;2024-03-17T05:49:15;6;6;
46094;PMS5003;31832;50.746;-2.716;2024-03-17T05:51:41;8;8;
46094;PMS5003;31832;50.746;-2.716;2024-03-17T05:54:07;12;11;
46094;PMS5003;31832;50.746;-2.716;2024-03-17T05:56:32;10;10;
46094;PMS5003;31832;50.746;-2.716;2024-03-17T05:58:58;7;7;
46094;PMS5003;31832;50.746;-2.716;2024-03-17T06:01:24;8;7;
46094;PMS5003;31832;50.746;-2.716;2024-03-17T06:03:49;12;11;
46094;PMS5003;31832;50.746;-2.716;2024-03-17T06:06:15;11;9;
46094;PMS5003;31832;50.746;-2.716;2024-03-17T06:08:40;10;8;
46094;PMS5003;31832;50.746;-2.716;2024-03-17T06:11:06;10;9;
46094;PMS5003;31832;50.746;-2.716;2024-03-17T06:13:31;8;7;
46094;PMS5003;31832;50.746;-2.716;2024-03-17T06:15:57;7;7;
46094;PMS5003;31832;50.746;-2.716;2024-03-17T06:18:22;6;6;
46094;PMS5003;31832;50.746;-2.716;2024-03-17T06:20:47;7;4;
46094;PMS5003;31832;50.746;-2.716;2024-03-17T06:23:12;3;3;
46094;PMS5003;31832;50.746;-2.716;2024-03-17T06:25:39;7;7;
46094;PMS5003;31832;50.746;-2.716;2024-03-17T06:28:03;6;6;
46094;PMS5003;31832;50.746;-2.716;2024-03-17T06:30:28;9;7;
46094;PMS5003;31832;50.746;-2.716;2024-03-17T06:32:54;8;8;
46094;PMS5003;31832;50.746;-2.716;2024-03-17T06:35:19;8;8;
46094;PMS5003;31832;50.746;-2.716;2024-03-17T06:37:44;14;9;
46094;PMS5003;31832;50.746;-2.716;2024-03-17T06:40:09;7;6;
46094;PMS5003;31832;50.746;-2.716;2024-03-17T06:42:34;6;6;
46094;PMS5003;31832;50.746;-2.716;2024-03-17T06:44:59;6;6;
46094;PMS5003;31832;50.746;-2.716;2024-03-17T06:47:25;8;7;
46094;PMS5003;31832;50.746;-2.716;2024-03-17T06:49:50;6;6;
46094;PMS5003;31832;50.746;-2.716;2024-03-17T06:52:15;5;4;
46094;PMS5003;31832;50.746;-2.716;2024-03-17T06:54:40;4;4;
46094;PMS5003;31832;50.746;-2.716;2024-03-17T06:57:05;5;5;
46094;PMS5003;31832;50.746;-2.716;2024-03-17T06:59:32;6;5;
46094;PMS5003;31832;50.746;-2.716;2024-03-17T07:01:56;5;5;
46094;PMS5003;31832;50.746;-2.716;2024-03-17T07:04:21;6;6;
46094;PMS5003;31832;50.746;-2.716;2024-03-17T07:06:47;5;5;
46094;PMS5003;31832;50.746;-2.716;2024-03-17T07:09:12;4;4;
46094;PMS5003;31832;50.746;-2.716;2024-03-17T07:11:37;8;6;
46094;PMS5003;31832;50.746;-2.716;2024-03-17T07:14:02;6;6;
46094;PMS5003;31832;50.746;-2.716;2024-03-17T07:16:27;5;5;
46094;PMS5003;31832;50.746;-2.716;2024-03-17T07:18:52;6;6;
46094;PMS5003;31832;50.746;-2.716;2024-03-17T07:21:18;4;4;
46094;PMS5003;31832;50.746;-2.716;2024-03-17T07:23:43;6;6;
46094;PMS5003;31832;50.746;-2.716;2024-03-17T07:26:08;5;5;
46094;PMS5003;31832;50.746;-2.716;2024-03-17T07:28:33;7;5;
46094;PMS5003;31832;50.746;-2.716;2024-03-17T07:30:58;3;3;
46094;PMS5003;31832;50.746;-2.716;2024-03-17T07:33:24;7;2;
46094;PMS5003;31832;50.746;-2.716;2024-03-17T07:35:49;5;4;
46094;PMS5003;31832;50.746;-2.716;2024-03-17T07:38:14;7;5;
46094;PMS5003;31832;50.746;-2.716;2024-03-17T07:40:39;6;5;
46094;PMS5003;31832;50.746;-2.716;2024-03-17T07:43:04;8;7;
46094;PMS5003;31832;50.746;-2.716;2024-03-17T07:45:30;5;5;
46094;PMS5003;31832;50.746;-2.716;2024-03-17T07:47:55;6;6;
46094;PMS5003;31832;50.746;-2.716;2024-03-17T07:50:20;8;8;
46094;PMS5003;31832;50.746;-2.716;2024-03-17T07:52:46;7;5;
46094;PMS5003;31832;50.746;-2.716;2024-03-17T07:55:11;8;6;
46094;PMS5003;31832;50.746;-2.716;2024-03-17T07:57:36;8;7;
46094;PMS5003;31832;50.746;-2.716;2024-03-17T08:00:01;8;6;
46094;PMS5003;31832;50.746;-2.716;2024-03-17T08:02:27;7;5;
46094;PMS5003;31832;50.746;-2.716;2024-03-17T08:04:52;9;6;
46094;PMS5003;31832;50.746;-2.716;2024-03-17T08:07:17;6;4;
46094;PMS5003;31832;50.746;-2.716;2024-03-17T08:09:42;9;6;
46094;PMS5003;31832;50.746;-2.716;2024-03-17T08:12:08;3;3;
46094;PMS5003;31832;50.746;-2.716;2024-03-17T08:14:33;6;6;
46094;PMS5003;31832;50.746;-2.716;2024-03-17T08:16:59;9;7;
46094;PMS5003;31832;50.746;-2.716;2024-03-17T08:19:24;6;6;
46094;PMS5003;31832;50.746;-2.716;2024-03-17T08:21:49;5;5;
46094;PMS5003;31832;50.746;-2.716;2024-03-17T08:24:15;3;3;
46094;PMS5003;31832;50.746;-2.716;2024-03-17T08:26:40;6;4;
46094;PMS5003;31832;50.746;-2.716;2024-03-17T08:29:05;5;5;
46094;PMS5003;31832;50.746;-2.716;2024-03-17T08:31:31;5;5;
46094;PMS5003;31832;50.746;-2.716;2024-03-17T08:33:55;5;5;
46094;PMS5003;31832;50.746;-2.716;2024-03-17T08:36:20;3;3;
46094;PMS5003;31832;50.746;-2.716;2024-03-17T08:38:45;3;3;
46094;PMS5003;31832;50.746;-2.716;2024-03-17T08:41:11;2;2;
46094;PMS5003;31832;50.746;-2.716;2024-03-17T08:43:36;4;4;
46094;PMS5003;31832;50.746;-2.716;2024-03-17T08:46:02;8;6;
46094;PMS5003;31832;50.746;-2.716;2024-03-17T08:48:27;5;4;
46094;PMS5003;31832;50.746;-2.716;2024-03-17T08:50:52;3;3;
46094;PMS5003;31832;50.746;-2.716;2024-03-17T08:53:17;4;3;
46094;PMS5003;31832;50.746;-2.716;2024-03-17T08:55:42;5;5;
46094;PMS5003;31832;50.746;-2.716;2024-03-17T08:58:07;3;3;
46094;PMS5003;31832;50.746;-2.716;2024-03-17T09:00:33;3;2;
46094;PMS5003;31832;50.746;-2.716;2024-03-17T09:02:58;5;5;
46094;PMS5003;31832;50.746;-2.716;2024-03-17T09:05:23;9;6;
46094;PMS5003;31832;50.746;-2.716;2024-03-17T09:07:48;8;7;
46094;PMS5003;31832;50.746;-2.716;2024-03-17T09:10:14;4;4;
46094;PMS5003;31832;50.746;-2.716;2024-03-17T09:12:39;7;7;
46094;PMS5003;31832;50.746;-2.716;2024-03-17T09:15:05;2;2;
46094;PMS5003;31832;50.746;-2.716;2024-03-17T09:17:30;5;5;
46094;PMS5003;31832;50.746;-2.716;2024-03-17T09:19:55;9;8;
46094;PMS5003;31832;50.746;-2.716;2024-03-17T09:22:20;8;7;
46094;PMS5003;31832;50.746;-2.716;2024-03-17T09:24:45;4;4;
46094;PMS5003;31832;50.746;-2.716;2024-03-17T09:27:11;9;9;
46094;PMS5003;31832;50.746;-2.716;2024-03-17T09:29:36;4;4;
46094;PMS5003;31832;50.746;-2.716;2024-03-17T09:32:01;5;5;
46094;PMS5003;31832;50.746;-2.716;2024-03-17T09:34:26;8;6;
46094;PMS5003;31832;50.746;-2.716;2024-03-17T09:36:51;2;2;
46094;PMS5003;31832;50.746;-2.716;2024-03-17T09:39:17;9;5;
46094;PMS5003;31832;50.746;-2.716;2024-03-17T09:41:42;6;5;
46094;PMS5003;31832;50.746;-2.716;2024-03-17T09:44:10;6;4;
46094;PMS5003;31832;50.746;-2.716;2024-03-17T09:46:33;5;5;
46094;PMS5003;31832;50.746;-2.716;2024-03-17T09:48:58;6;4;
46094;PMS5003;31832;50.746;-2.716;2024-03-17T09:51:24;2;2;
46094;PMS5003;31832;50.746;-2.716;2024-03-17T09:53:48;4;4;
46094;PMS5003;31832;50.746;-2.716;2024-03-17T09:56:14;4;4;
46094;PMS5003;31832;50.746;-2.716;2024-03-17T09:58:38;5;4;
46094;PMS5003;31832;50.746;-2.716;2024-03-17T10:01:04;7;6;
46094;PMS5003;31832;50.746;-2.716;2024-03-17T10:05:59;12;10;
46094;PMS5003;31832;50.746;-2.716;2024-03-17T10:08:20;6;5;
46094;PMS5003;31832;50.746;-2.716;2024-03-17T10:10:46;4;4;
46094;PMS5003;31832;50.746;-2.716;2024-03-17T10:13:11;5;5;
46094;PMS5003;31832;50.746;-2.716;2024-03-17T10:15:36;6;6;
46094;PMS5003;31832;50.746;-2.716;2024-03-17T10:18:01;7;6;
46094;PMS5003;31832;50.746;-2.716;2024-03-17T10:20:27;5;3;
46094;PMS5003;31832;50.746;-2.716;2024-03-17T10:22:58;7;5;
46094;PMS5003;31832;50.746;-2.716;2024-03-17T10:25:17;13;11;
46094;PMS5003;31832;50.746;-2.716;2024-03-17T10:27:44;5;5;
46094;PMS5003;31832;50.746;-2.716;2024-03-17T10:30:09;4;4;
46094;PMS5003;31832;50.746;-2.716;2024-03-17T10:32:32;5;4;
46094;PMS5003;31832;50.746;-2.716;2024-03-17T10:34:57;4;3;
46094;PMS5003;31832;50.746;-2.716;2024-03-17T10:37:23;4;4;
46094;PMS5003;31832;50.746;-2.716;2024-03-17T10:39:50;4;2;
46094;PMS5003;31832;50.746;-2.716;2024-03-17T10:42:14;5;4;
46094;PMS5003;31832;50.746;-2.716;2024-03-17T10:44:39;7;4;
46094;PMS5003;31832;50.746;-2.716;2024-03-17T10:47:04;4;3;
46094;PMS5003;31832;50.746;-2.716;2024-03-17T10:49:29;6;5;
46094;PMS5003;31832;50.746;-2.716;2024-03-17T10:51:55;7;5;
46094;PMS5003;31832;50.746;-2.716;2024-03-17T10:54:21;5;2;
46094;PMS5003;31832;50.746;-2.716;2024-03-17T10:56:44;4;3;
46094;PMS5003;31832;50.746;-2.716;2024-03-17T10:59:10;4;4;
46094;PMS5003;31832;50.746;-2.716;2024-03-17T11:01:35;5;4;
46094;PMS5003;31832;50.746;-2.716;2024-03-17T11:04:00;3;3;
46094;PMS5003;31832;50.746;-2.716;2024-03-17T11:06:26;2;2;
46094;PMS5003;31832;50.746;-2.716;2024-03-17T11:08:50;8;7;
46094;PMS5003;31832;50.746;-2.716;2024-03-17T11:13:42;4;4;
46094;PMS5003;31832;50.746;-2.716;2024-03-17T11:16:24;3;3;
46094;PMS5003;31832;50.746;-2.716;2024-03-17T11:18:35;5;5;
46094;PMS5003;31832;50.746;-2.716;2024-03-17T11:20:58;4;2;
46094;PMS5003;31832;50.746;-2.716;2024-03-17T11:23:27;2;2;
46094;PMS5003;31832;50.746;-2.716;2024-03-17T11:25:50;4;4;
46094;PMS5003;31832;50.746;-2.716;2024-03-17T11:28:14;5;4;
46094;PMS5003;31832;50.746;-2.716;2024-03-17T11:30:43;5;5;
46094;PMS5003;31832;50.746;-2.716;2024-03-17T11:33:05;4;4;
46094;PMS5003;31832;50.746;-2.716;2024-03-17T11:35:30;5;4;
46094;PMS5003;31832;50.746;-2.716;2024-03-17T11:37:56;4;3;
46094;PMS5003;31832;50.746;-2.716;2024-03-17T11:40:23;10;8;
46094;PMS5003;31832;50.746;-2.716;2024-03-17T11:45:13;5;3;
46094;PMS5003;31832;50.746;-2.716;2024-03-17T11:47:39;5;5;
46094;PMS5003;31832;50.746;-2.716;2024-03-17T11:50:04;5;5;
46094;PMS5003;31832;50.746;-2.716;2024-03-17T11:52:29;6;6;
46094;PMS5003;31832;50.746;-2.716;2024-03-17T11:54:54;5;3;
46094;PMS5003;31832;50.746;-2.716;2024-03-17T11:57:20;5;3;
46094;PMS5003;31832;50.746;-2.716;2024-03-17T11:59:45;6;5;
46094;PMS5003;31832;50.746;-2.716;2024-03-17T12:02:10;7;3;
46094;PMS5003;31832;50.746;-2.716;2024-03-17T12:04:39;6;5;
46094;PMS5003;31832;50.746;-2.716;2024-03-17T12:07:00;4;3;
46094;PMS5003;31832;50.746;-2.716;2024-03-17T12:09:26;4;3;
46094;PMS5003;31832;50.746;-2.716;2024-03-17T12:11:57;4;3;
46094;PMS5003;31832;50.746;-2.716;2024-03-17T12:14:16;5;4;
46094;PMS5003;31832;50.746;-2.716;2024-03-17T12:19:07;4;4;
46094;PMS5003;31832;50.746;-2.716;2024-03-17T12:21:33;6;3;
46094;PMS5003;31832;50.746;-2.716;2024-03-17T12:23:58;4;4;
46094;PMS5003;31832;50.746;-2.716;2024-03-17T12:26:23;4;2;
46094;PMS5003;31832;50.746;-2.716;2024-03-17T12:28:48;2;2;
46094;PMS5003;31832;50.746;-2.716;2024-03-17T12:31:20;3;3;
46094;PMS5003;31832;50.746;-2.716;2024-03-17T12:33:38;3;3;
46094;PMS5003;31832;50.746;-2.716;2024-03-17T12:36:04;3;2;
46094;PMS5003;31832;50.746;-2.716;2024-03-17T12:38:34;10;4;
46094;PMS5003;31832;50.746;-2.716;2024-03-17T12:40:54;5;4;
46094;PMS5003;31832;50.746;-2.716;2024-03-17T12:43:19;3;1;
46094;PMS5003;31832;50.746;-2.716;2024-03-17T12:45:44;5;2;
46094;PMS5003;31832;50.746;-2.716;2024-03-17T12:48:12;4;4;
46094;PMS5003;31832;50.746;-2.716;2024-03-17T12:50:34;3;2;
46094;PMS5003;31832;50.746;-2.716;2024-03-17T12:52:59;5;3;
46094;PMS5003;31832;50.746;-2.716;2024-03-17T12:55:25;3;3;
46094;PMS5003;31832;50.746;-2.716;2024-03-17T12:57:51;1;1;
46094;PMS5003;31832;50.746;-2.716;2024-03-17T13:02:41;1;1;
46094;PMS5003;31832;50.746;-2.716;2024-03-17T13:05:14;6;4;
46094;PMS5003;31832;50.746;-2.716;2024-03-17T13:07:31;6;4;
46094;PMS5003;31832;50.746;-2.716;2024-03-17T13:09:56;3;3;
46094;PMS5003;31832;50.746;-2.716;2024-03-17T13:12:21;10;5;
46094;PMS5003;31832;50.746;-2.716;2024-03-17T13:14:46;3;3;
46094;PMS5003;31832;50.746;-2.716;2024-03-17T13:17:14;4;3;
46094;PMS5003;31832;50.746;-2.716;2024-03-17T13:19:37;5;3;
46094;PMS5003;31832;50.746;-2.716;2024-03-17T13:22:02;6;5;
46094;PMS5003;31832;50.746;-2.716;2024-03-17T13:24:27;4;2;
46094;PMS5003;31832;50.746;-2.716;2024-03-17T13:26:52;6;5;
46094;PMS5003;31832;50.746;-2.716;2024-03-17T13:29:17;7;4;
46094;PMS5003;31832;50.746;-2.716;2024-03-17T13:31:42;7;5;
46094;PMS5003;31832;50.746;-2.716;2024-03-17T13:34:08;3;3;
46094;PMS5003;31832;50.746;-2.716;2024-03-17T13:36:33;6;4;
46094;PMS5003;31832;50.746;-2.716;2024-03-17T13:38:59;9;5;
46094;PMS5003;31832;50.746;-2.716;2024-03-17T13:41:24;6;4;
46094;PMS5003;31832;50.746;-2.716;2024-03-17T13:43:49;7;5;
46094;PMS5003;31832;50.746;-2.716;2024-03-17T13:46:14;8;4;
46094;PMS5003;31832;50.746;-2.716;2024-03-17T13:48:40;8;7;
46094;PMS5003;31832;50.746;-2.716;2024-03-17T13:51:05;8;5;
46094;PMS5003;31832;50.746;-2.716;2024-03-17T13:53:30;7;5;
46094;PMS5003;31832;50.746;-2.716;2024-03-17T13:55:55;5;5;
46094;PMS5003;31832;50.746;-2.716;2024-03-17T13:58:20;5;4;
46094;PMS5003;31832;50.746;-2.716;2024-03-17T14:00:45;4;4;
46094;PMS5003;31832;50.746;-2.716;2024-03-17T14:03:10;5;5;
46094;PMS5003;31832;50.746;-2.716;2024-03-17T14:05:35;4;4;
46094;PMS5003;31832;50.746;-2.716;2024-03-17T14:08:01;5;5;
46094;PMS5003;31832;50.746;-2.716;2024-03-17T14:10:26;9;7;
46094;PMS5003;31832;50.746;-2.716;2024-03-17T14:12:51;3;2;
46094;PMS5003;31832;50.746;-2.716;2024-03-17T14:15:16;6;3;
46094;PMS5003;31832;50.746;-2.716;2024-03-17T14:17:42;7;4;
46094;PMS5003;31832;50.746;-2.716;2024-03-17T14:20:07;4;4;
46094;PMS5003;31832;50.746;-2.716;2024-03-17T14:22:32;8;5;
46094;PMS5003;31832;50.746;-2.716;2024-03-17T14:24:57;6;5;
46094;PMS5003;31832;50.746;-2.716;2024-03-17T14:27:22;4;4;
46094;PMS5003;31832;50.746;-2.716;2024-03-17T14:29:48;7;6;
46094;PMS5003;31832;50.746;-2.716;2024-03-17T14:32:13;5;4;
46094;PMS5003;31832;50.746;-2.716;2024-03-17T14:34:38;6;4;
46094;PMS5003;31832;50.746;-2.716;2024-03-17T14:37:04;7;5;
46094;PMS5003;31832;50.746;-2.716;2024-03-17T14:39:29;5;4;
46094;PMS5003;31832;50.746;-2.716;2024-03-17T14:41:55;8;5;
46094;PMS5003;31832;50.746;-2.716;2024-03-17T14:44:19;5;5;
46094;PMS5003;31832;50.746;-2.716;2024-03-17T14:46:44;3;3;
46094;PMS5003;31832;50.746;-2.716;2024-03-17T14:49:10;5;4;
46094;PMS5003;31832;50.746;-2.716;2024-03-17T14:51:36;5;4;
46094;PMS5003;31832;50.746;-2.716;2024-03-17T14:54:01;6;4;
46094;PMS5003;31832;50.746;-2.716;2024-03-17T14:56:25;6;4;
46094;PMS5003;31832;50.746;-2.716;2024-03-17T14:58:51;6;3;
46094;PMS5003;31832;50.746;-2.716;2024-03-17T15:01:22;7;4;
46094;PMS5003;31832;50.746;-2.716;2024-03-17T15:03:42;6;2;
46094;PMS5003;31832;50.746;-2.716;2024-03-17T15:10:58;4;4;
46094;PMS5003;31832;50.746;-2.716;2024-03-17T15:13:23;5;4;
46094;PMS5003;31832;50.746;-2.716;2024-03-17T15:15:48;8;5;
46094;PMS5003;31832;50.746;-2.716;2024-03-17T15:18:14;2;2;
46094;PMS5003;31832;50.746;-2.716;2024-03-17T15:20:39;7;6;
46094;PMS5003;31832;50.746;-2.716;2024-03-17T15:23:04;3;3;
46094;PMS5003;31832;50.746;-2.716;2024-03-17T15:25:30;3;2;
46094;PMS5003;31832;50.746;-2.716;2024-03-17T15:28:00;5;4;
46094;PMS5003;31832;50.746;-2.716;2024-03-17T15:30:20;6;5;
46094;PMS5003;31832;50.746;-2.716;2024-03-17T15:32:46;6;4;
46094;PMS5003;31832;50.746;-2.716;2024-03-17T15:35:11;7;6;
46094;PMS5003;31832;50.746;-2.716;2024-03-17T15:37:36;6;4;
46094;PMS5003;31832;50.746;-2.716;2024-03-17T15:40:01;7;5;
46094;PMS5003;31832;50.746;-2.716;2024-03-17T15:42:26;2;2;
46094;PMS5003;31832;50.746;-2.716;2024-03-17T15:44:51;3;2;
46094;PMS5003;31832;50.746;-2.716;2024-03-17T15:47:17;2;2;
46094;PMS5003;31832;50.746;-2.716;2024-03-17T15:49:42;4;3;
46094;PMS5003;31832;50.746;-2.716;2024-03-17T15:52:07;4;3;
46094;PMS5003;31832;50.746;-2.716;2024-03-17T15:54:33;3;3;
46094;PMS5003;31832;50.746;-2.716;2024-03-17T15:56:58;5;4;
46094;PMS5003;31832;50.746;-2.716;2024-03-17T15:59:23;4;3;
46094;PMS5003;31832;50.746;-2.716;2024-03-17T16:01:48;2;2;
46094;PMS5003;31832;50.746;-2.716;2024-03-17T16:04:13;8;3;
46094;PMS5003;31832;50.746;-2.716;2024-03-17T16:06:38;2;2;
46094;PMS5003;31832;50.746;-2.716;2024-03-17T16:09:09;4;3;
46094;PMS5003;31832;50.746;-2.716;2024-03-17T16:11:29;4;2;
46094;PMS5003;31832;50.746;-2.716;2024-03-17T16:13:55;5;3;
46094;PMS5003;31832;50.746;-2.716;2024-03-17T16:16:20;5;4;
46094;PMS5003;31832;50.746;-2.716;2024-03-17T16:18:44;3;3;
46094;PMS5003;31832;50.746;-2.716;2024-03-17T16:21:10;6;4;
46094;PMS5003;31832;50.746;-2.716;2024-03-17T16:23:38;4;4;
46094;PMS5003;31832;50.746;-2.716;2024-03-17T16:26:01;4;3;
46094;PMS5003;31832;50.746;-2.716;2024-03-17T16:28:28;8;5;
46094;PMS5003;31832;50.746;-2.716;2024-03-17T16:30:53;9;6;
46094;PMS5003;31832;50.746;-2.716;2024-03-17T16:33:17;7;6;
46094;PMS5003;31832;50.746;-2.716;2024-03-17T16:35:42;6;4;
46094;PMS5003;31832;50.746;-2.716;2024-03-17T16:38:08;4;4;